Time;durP1;ratioP1;P1;durP2;ratioP2;P2;SDS_P1;SDS_P2;PMS_P1;PMS_P2;Temp;Humidity;BMP_temperature;BMP_pressure;BME280_temperature;BME280_humidity;BME280_pressure;Samples;Min_cycle;Max_cycle;Signal;HPM_P1;HPM_P2
2023/06/04 00:00:26;;;;;;;3.50;1.60;;;;;;;8.71;79.17;101677.63;107301;1243;62596;-73
2023/06/04 00:03:15;;;;;;;7.40;1.90;;;;;;;8.61;78.18;101686.25;107313;1255;61371;-74
2023/06/04 00:05:44;;;;;;;6.50;1.90;;;;;;;8.48;78.17;101688.77;107237;1246;64893;-74
2023/06/04 00:08:13;;;;;;;6.90;2.00;;;;;;;8.37;77.63;101687.23;107376;1255;57902;-76
2023/06/04 00:10:42;;;;;;;5.50;2.00;;;;;;;8.28;80.95;101689.20;107218;1248;59099;-75
2023/06/04 00:13:11;;;;;;;5.50;1.80;;;;;;;8.27;82.07;101695.02;107412;1244;71856;-74
2023/06/04 00:15:40;;;;;;;3.60;1.60;;;;;;;8.25;81.90;101698.35;107163;1248;72440;-74
2023/06/04 00:18:10;;;;;;;5.70;2.50;;;;;;;8.27;81.61;101699.65;107392;1244;70832;-75
2023/06/04 00:20:39;;;;;;;5.50;2.20;;;;;;;8.38;81.53;101703.35;107227;1255;74117;-74
2023/06/04 00:23:08;;;;;;;4.30;2.00;;;;;;;8.36;82.02;101701.71;107404;1245;58810;-77
2023/06/04 00:25:37;;;;;;;10.40;2.40;;;;;;;8.33;82.11;101700.77;107247;1248;59147;-76
2023/06/04 00:28:06;;;;;;;4.40;1.70;;;;;;;8.30;82.66;101700.42;107392;1245;62972;-78
2023/06/04 00:30:35;;;;;;;4.30;2.10;;;;;;;8.25;83.32;101703.92;107163;1244;71864;-77
2023/06/04 00:33:04;;;;;;;6.80;2.10;;;;;;;8.24;83.54;101704.15;107375;1244;70249;-77
2023/06/04 00:35:33;;;;;;;4.80;2.00;;;;;;;8.20;84.01;101705.88;107238;1248;62789;-79
2023/06/04 00:38:02;;;;;;;3.80;1.60;;;;;;;8.18;84.11;101705.48;107305;1244;58726;-79
2023/06/04 00:40:31;;;;;;;5.10;2.00;;;;;;;8.14;83.01;101704.45;107101;1244;61756;-78
2023/06/04 00:43:00;;;;;;;5.70;2.00;;;;;;;8.04;82.44;101704.89;107143;1243;64375;-79
2023/06/04 00:45:31;;;;;;;4.80;1.90;;;;;;;7.93;84.85;101704.70;107240;1255;72500;-79
2023/06/04 00:48:00;;;;;;;5.60;2.20;;;;;;;7.88;85.99;101709.82;107144;1244;71045;-80
2023/06/04 00:50:30;;;;;;;4.60;1.90;;;;;;;7.81;85.70;101707.00;107092;1243;73361;-76
2023/06/04 00:52:59;;;;;;;4.00;1.70;;;;;;;7.75;84.76;101706.73;107237;1248;63223;-76
2023/06/04 00:55:28;;;;;;;7.50;2.00;;;;;;;7.69;84.43;101710.63;107222;1246;61730;-75
2023/06/04 00:57:57;;;;;;;3.90;1.60;;;;;;;7.60;83.48;101708.45;107246;1244;63449;-76
2023/06/04 01:00:26;;;;;;;3.80;1.90;;;;;;;7.51;84.37;101710.56;107133;1247;60914;-74
2023/06/04 01:02:58;;;;;;;5.00;1.60;;;;;;;7.45;88.32;101711.52;107243;1244;59371;-74
2023/06/04 01:05:45;;;;;;;4.70;1.90;;;;;;;7.43;90.10;101710.21;107041;1248;63212;-76
2023/06/04 01:08:15;;;;;;;3.20;2.10;;;;;;;7.42;90.67;101709.56;107077;1244;58768;-77
2023/06/04 01:10:56;;;;;;;2.80;1.70;;;;;;;7.42;90.95;101704.68;107366;1245;60439;-77
2023/06/04 01:13:25;;;;;;;3.20;1.60;;;;;;;7.43;90.80;101702.94;107243;1245;63377;-75
2023/06/04 01:15:54;;;;;;;3.30;1.80;;;;;;;7.43;90.92;101699.64;107077;1248;62823;-76
2023/06/04 01:18:28;;;;;;;4.90;2.40;;;;;;;7.42;91.00;101700.17;107234;1251;69095;-78
2023/06/04 01:21:12;;;;;;;4.20;2.10;;;;;;;7.42;91.16;101698.96;107044;1249;63128;-75
2023/06/04 01:24:00;;;;;;;3.50;1.80;;;;;;;7.41;91.07;101697.80;107043;1247;58749;-76
2023/06/04 01:26:31;;;;;;;5.00;1.90;;;;;;;7.34;91.08;101697.78;107260;1245;57398;-77
2023/06/04 01:29:01;;;;;;;3.50;1.70;;;;;;;7.27;92.37;101696.05;107274;1245;62928;-77
2023/06/04 01:31:32;;;;;;;3.80;2.10;;;;;;;7.21;93.24;101696.27;106984;1248;61612;-77
2023/06/04 01:34:02;;;;;;;5.30;2.00;;;;;;;7.11;94.26;101699.65;107098;1245;70508;-77
2023/06/04 01:36:32;;;;;;;4.70;2.10;;;;;;;7.06;94.40;101701.22;107217;1255;73621;-78
2023/06/04 01:39:01;;;;;;;5.10;2.00;;;;;;;7.06;95.22;101704.69;107265;1245;62437;-77
2023/06/04 01:41:30;;;;;;;5.00;1.90;;;;;;;7.07;95.60;101702.05;107026;1255;60917;-76
2023/06/04 01:43:58;;;;;;;6.60;2.10;;;;;;;7.07;95.16;101703.77;107100;1246;74048;-76
2023/06/04 01:46:27;;;;;;;3.40;1.80;;;;;;;7.04;95.19;101711.69;107020;1255;73014;-76
2023/06/04 01:48:56;;;;;;;4.90;2.70;;;;;;;7.05;96.16;101712.89;107109;1248;60459;-76
2023/06/04 01:51:25;;;;;;;5.20;1.90;;;;;;;7.06;96.42;101711.64;107225;1245;63277;-75
2023/06/04 01:53:54;;;;;;;8.00;2.20;;;;;;;7.07;96.71;101708.95;107098;1248;62340;-77
2023/06/04 01:56:23;;;;;;;4.80;2.10;;;;;;;7.09;96.88;101709.75;107175;1245;58910;-76
2023/06/04 01:58:52;;;;;;;5.70;1.90;;;;;;;7.13;96.78;101707.35;107114;1248;63035;-75
2023/06/04 02:01:21;;;;;;;4.30;2.30;;;;;;;7.12;96.04;101708.06;107212;1245;61672;-76
2023/06/04 02:03:50;;;;;;;5.60;1.90;;;;;;;7.11;96.32;101705.35;107078;1248;69720;-74
2023/06/04 02:06:19;;;;;;;5.20;2.00;;;;;;;7.08;96.63;101705.11;107141;1248;65452;-75
2023/06/04 02:08:48;;;;;;;6.00;2.30;;;;;;;7.08;96.66;101705.15;107081;1247;58991;-74
2023/06/04 02:11:17;;;;;;;5.60;2.20;;;;;;;7.06;96.34;101702.59;107146;1245;58260;-78
2023/06/04 02:13:46;;;;;;;5.60;2.20;;;;;;;7.07;96.80;101705.35;107110;1255;74124;-77
2023/06/04 02:16:14;;;;;;;8.50;2.20;;;;;;;7.06;97.03;101704.52;107129;1243;72361;-79
2023/06/04 02:18:43;;;;;;;4.20;2.00;;;;;;;7.03;97.08;101702.04;107279;1245;70815;-80
2023/06/04 02:21:12;;;;;;;4.50;2.10;;;;;;;7.02;96.83;101701.91;107166;1253;63065;-79
2023/06/04 02:23:41;;;;;;;4.90;2.10;;;;;;;7.02;97.04;101701.74;107407;1245;57575;-77
2023/06/04 02:26:10;;;;;;;3.30;1.90;;;;;;;7.03;97.32;101699.96;107261;1248;57710;-77
2023/06/04 02:28:39;;;;;;;3.70;2.20;;;;;;;7.03;97.05;101700.33;107271;1246;62989;-76
2023/06/04 02:31:08;;;;;;;4.30;2.00;;;;;;;7.01;97.19;101703.50;107434;1243;60947;-75
2023/06/04 02:33:38;;;;;;;5.10;2.20;;;;;;;7.02;97.48;101709.04;107398;1252;59997;-76
2023/06/04 02:36:08;;;;;;;5.40;2.30;;;;;;;7.00;96.93;101710.48;107294;1246;73858;-75
2023/06/04 02:38:37;;;;;;;4.70;2.50;;;;;;;6.97;96.82;101712.69;107255;1245;58998;-76
2023/06/04 02:41:06;;;;;;;5.70;2.20;;;;;;;6.93;97.26;101717.70;107407;1245;59072;-77
2023/06/04 02:43:37;;;;;;;3.90;2.00;;;;;;;6.90;97.60;101722.66;107386;1245;72729;-74
2023/06/04 02:46:06;;;;;;;6.40;2.10;;;;;;;6.90;98.53;101722.16;107276;1249;72415;-74
2023/06/04 02:48:35;;;;;;;4.80;2.20;;;;;;;6.91;98.52;101724.89;109581;1243;60346;-72
2023/06/04 02:51:05;;;;;;;5.60;2.20;;;;;;;6.94;98.67;101727.17;108984;1248;62486;-74
2023/06/04 02:53:36;;;;;;;4.50;2.30;;;;;;;6.99;98.19;101727.15;108085;1247;64046;-78
2023/06/04 02:56:06;;;;;;;5.00;2.10;;;;;;;7.03;97.76;101729.42;107182;1249;59004;-78
2023/06/04 02:58:39;;;;;;;10.10;2.30;;;;;;;7.08;98.14;101729.20;107131;1244;73499;-79
2023/06/04 03:01:07;;;;;;;3.80;2.40;;;;;;;7.15;97.63;101727.34;107106;1248;73663;-76
2023/06/04 03:03:37;;;;;;;6.90;2.30;;;;;;;7.21;97.65;101726.41;107139;1245;60448;-75
2023/06/04 03:06:06;;;;;;;3.90;2.20;;;;;;;7.27;97.38;101723.58;107149;1248;73840;-78
2023/06/04 03:08:34;;;;;;;5.60;2.20;;;;;;;7.33;96.72;101721.76;107336;1248;61938;-79
2023/06/04 03:11:04;;;;;;;7.60;3.20;;;;;;;7.41;96.78;101717.58;107405;1255;60180;-76
2023/06/04 03:13:33;;;;;;;4.80;2.20;;;;;;;7.46;96.47;101716.88;107337;1245;72408;-75
2023/06/04 03:16:03;;;;;;;4.80;2.00;;;;;;;7.48;96.53;101719.02;107315;1255;62215;-75
2023/06/04 03:18:32;;;;;;;6.80;2.40;;;;;;;7.55;95.91;101719.06;107280;1243;70866;-76
2023/06/04 03:21:01;;;;;;;6.70;2.50;;;;;;;7.62;95.60;101721.00;107319;1245;62811;-76
2023/06/04 03:23:31;;;;;;;3.70;1.90;;;;;;;7.63;95.66;101711.06;107204;1255;58948;-75
2023/06/04 03:26:04;;;;;;;6.00;2.20;;;;;;;7.74;95.59;101724.46;107281;1248;58882;-76
2023/06/04 03:28:33;;;;;;;6.20;2.40;;;;;;;7.79;95.58;101724.05;107428;1245;63812;-75
2023/06/04 03:31:05;;;;;;;8.40;2.70;;;;;;;7.85;95.41;101732.81;107277;1249;71376;-74
2023/06/04 03:33:34;;;;;;;5.20;2.20;;;;;;;7.92;94.88;101737.35;107297;1256;60423;-74
2023/06/04 03:36:04;;;;;;;7.00;3.00;;;;;;;8.02;94.21;101738.30;107446;1246;73172;-75
2023/06/04 03:38:33;;;;;;;6.50;2.40;;;;;;;8.11;93.79;101727.64;107428;1255;63384;-74
2023/06/04 03:41:02;;;;;;;8.10;2.70;;;;;;;8.19;93.18;101729.21;107455;1243;61576;-75
2023/06/04 03:43:30;;;;;;;6.70;2.70;;;;;;;8.26;92.14;101730.63;107284;1245;73375;-74
2023/06/04 03:46:02;;;;;;;4.80;2.80;;;;;;;8.31;91.11;101731.74;107455;1245;71273;-77
2023/06/04 03:48:31;;;;;;;6.90;2.60;;;;;;;8.33;90.36;101733.58;107446;1244;60738;-74
2023/06/04 03:51:00;;;;;;;5.20;2.70;;;;;;;8.44;89.69;101734.66;107300;1256;63306;-76
2023/06/04 03:53:29;;;;;;;5.40;2.80;;;;;;;8.55;89.24;101736.23;107485;1245;59056;-77
2023/06/04 03:55:58;;;;;;;4.30;2.90;;;;;;;8.64;88.32;101736.99;107464;1256;60388;-76
2023/06/04 03:58:28;;;;;;;6.30;2.90;;;;;;;8.72;87.85;101738.70;107317;1244;74700;-75
2023/06/04 04:00:58;;;;;;;8.00;3.00;;;;;;;8.81;87.26;101737.92;107439;1245;61349;-79
2023/06/04 04:03:30;;;;;;;7.80;3.10;;;;;;;8.91;86.49;101735.02;107304;1245;69909;-77
2023/06/04 04:06:00;;;;;;;8.70;3.70;;;;;;;9.01;86.57;101733.83;107200;1245;73529;-76
2023/06/04 04:08:31;;;;;;;10.80;3.50;;;;;;;9.11;86.78;101734.87;107166;1249;61057;-73
2023/06/04 04:11:01;;;;;;;7.00;3.20;;;;;;;9.22;86.51;101738.46;107139;1247;60346;-74
2023/06/04 04:13:30;;;;;;;9.40;3.40;;;;;;;9.34;85.45;101739.66;107159;1248;74093;-76
2023/06/04 04:15:59;;;;;;;9.70;3.10;;;;;;;9.43;84.01;101740.71;107185;1247;71095;-76
2023/06/04 04:18:36;;;;;;;13.50;3.30;;;;;;;9.54;83.16;101737.88;107175;1248;60370;-75
2023/06/04 04:21:05;;;;;;;7.90;3.20;;;;;;;9.68;82.86;101738.08;107172;1248;72875;-74
2023/06/04 04:23:35;;;;;;;6.40;3.50;;;;;;;9.79;80.88;101738.52;107084;1249;60611;-75
2023/06/04 04:26:04;;;;;;;5.30;3.10;;;;;;;9.91;79.85;101737.53;107089;1244;61771;-75
2023/06/04 04:28:34;;;;;;;6.90;3.20;;;;;;;10.02;79.58;101741.81;107183;1246;63401;-76
2023/06/04 04:31:03;;;;;;;8.00;3.20;;;;;;;10.13;79.66;101743.51;107122;1251;61680;-76
2023/06/04 04:33:39;;;;;;;7.00;3.30;;;;;;;10.22;78.94;101735.19;107130;1257;69631;-77
2023/06/04 04:36:12;;;;;;;4.90;3.40;;;;;;;10.30;77.39;101736.15;107189;1257;63162;-75
2023/06/04 04:38:45;;;;;;;10.60;3.40;;;;;;;10.40;77.09;101735.23;107150;1247;59049;-77
2023/06/04 04:41:15;;;;;;;6.80;3.60;;;;;;;10.52;76.15;101733.85;107231;1257;60493;-76
2023/06/04 04:43:43;;;;;;;7.40;3.60;;;;;;;10.63;75.74;101733.40;107155;1244;73941;-75
2023/06/04 04:46:20;;;;;;;6.90;3.00;;;;;;;10.76;74.50;101730.63;107197;1257;70747;-77
2023/06/04 04:48:49;;;;;;;6.70;3.40;;;;;;;10.89;73.64;101728.14;107129;1248;59733;-78
2023/06/04 04:51:18;;;;;;;8.40;3.50;;;;;;;11.03;71.87;101731.00;107199;1248;63258;-80
2023/06/04 04:53:47;;;;;;;8.80;4.00;;;;;;;11.14;70.73;101732.08;107020;1245;60337;-72
2023/06/04 04:56:17;;;;;;;6.30;3.40;;;;;;;11.29;70.66;101729.80;107252;1247;60564;-73
2023/06/04 04:58:49;;;;;;;7.00;3.50;;;;;;;11.45;69.90;101723.09;107177;1257;73541;-73
2023/06/04 05:01:18;;;;;;;10.10;4.50;;;;;;;11.53;68.85;101723.13;107243;1248;60892;-72
2023/06/04 05:03:48;;;;;;;10.70;5.50;;;;;;;11.69;68.92;101726.52;107201;1244;70530;-75
2023/06/04 05:06:18;;;;;;;7.00;4.10;;;;;;;11.83;68.27;101730.21;107452;1244;73863;-75
2023/06/04 05:08:48;;;;;;;10.80;4.10;;;;;;;11.98;67.19;101731.73;107364;1255;60823;-75
2023/06/04 05:11:17;;;;;;;9.90;4.30;;;;;;;12.14;66.33;101727.45;107464;1248;59338;-74
2023/06/04 05:13:46;;;;;;;11.80;4.00;;;;;;;12.25;66.34;101729.02;107323;1255;63504;-73
2023/06/04 05:16:16;;;;;;;8.00;3.80;;;;;;;12.38;66.24;101729.02;107335;1249;61949;-75
2023/06/04 05:18:45;;;;;;;11.00;3.90;;;;;;;12.54;66.48;101731.84;107305;1256;59266;-73
2023/06/04 05:21:18;;;;;;;10.40;4.10;;;;;;;12.74;64.76;101732.48;107307;1248;71658;-75
2023/06/04 05:23:51;;;;;;;7.60;3.80;;;;;;;12.90;64.61;101733.01;107366;1246;59161;-75
2023/06/04 05:26:25;;;;;;;5.50;3.50;;;;;;;13.05;63.46;101731.50;107358;1246;59067;-74
2023/06/04 05:28:55;;;;;;;7.90;3.30;;;;;;;13.20;63.36;101736.60;107265;1244;62212;-76
2023/06/04 05:31:28;;;;;;;7.30;3.60;;;;;;;13.31;62.24;101738.70;107460;1248;60900;-72
2023/06/04 05:33:59;;;;;;;8.40;3.60;;;;;;;13.45;62.75;101740.00;107327;1249;69706;-73
2023/06/04 05:36:30;;;;;;;8.30;3.80;;;;;;;13.60;62.01;101734.42;107848;1245;62845;-75
2023/06/04 08:05:03;;;;;;;9.50;1.60;;;;;;;19.03;33.40;101726.20;104297;1286;602272;-66
2023/06/04 08:07:32;;;;;;;5.00;1.30;;;;;;;18.92;32.95;101722.75;106999;1256;61545;-69
2023/06/04 08:10:02;;;;;;;3.50;1.30;;;;;;;19.21;33.83;101720.23;106252;1260;60948;-66
2023/06/04 08:12:31;;;;;;;3.80;1.30;;;;;;;19.45;32.97;101721.87;107003;1249;71450;-66
2023/06/04 08:15:00;;;;;;;4.80;1.60;;;;;;;19.49;32.81;101719.70;106934;1247;72539;-67
2023/06/04 08:17:29;;;;;;;5.90;1.40;;;;;;;19.61;32.67;101717.04;106923;1251;70806;-67
2023/06/04 08:19:58;;;;;;;3.00;1.00;;;;;;;19.79;32.08;101715.15;106923;1247;64119;-66
2023/06/04 08:22:29;;;;;;;3.10;1.10;;;;;;;19.81;32.50;101713.02;107031;1248;59098;-66
2023/06/04 08:24:58;;;;;;;2.10;1.10;;;;;;;19.94;32.30;101713.61;107081;1244;61137;-68
2023/06/04 08:27:27;;;;;;;5.00;0.90;;;;;;;20.03;32.11;101711.80;106969;1248;62362;-64
2023/06/04 08:29:57;;;;;;;2.00;1.10;;;;;;;20.11;31.83;101712.65;107084;1247;61067;-64
2023/06/04 08:32:26;;;;;;;1.70;0.90;;;;;;;19.87;31.60;101712.99;107256;1255;60050;-69
2023/06/04 08:34:55;;;;;;;4.40;1.00;;;;;;;20.09;31.86;101717.35;107144;1245;73307;-68
2023/06/04 08:37:24;;;;;;;2.90;1.10;;;;;;;20.31;31.75;101718.90;107192;1245;60563;-66
2023/06/04 08:39:53;;;;;;;3.50;1.40;;;;;;;20.29;31.42;101720.58;107164;1256;61251;-67
2023/06/04 08:42:33;;;;;;;3.30;1.20;;;;;;;20.55;31.10;101718.39;107253;1244;73267;-66
2023/06/04 08:45:02;;;;;;;3.70;0.90;;;;;;;20.67;31.13;101717.89;107434;1246;61183;-68
2023/06/04 08:47:35;;;;;;;2.80;1.20;;;;;;;20.75;31.21;101717.27;107168;1248;59267;-66
2023/06/04 08:50:07;;;;;;;2.80;1.70;;;;;;;20.68;30.42;101718.16;107394;1243;73882;-68
2023/06/04 08:52:37;;;;;;;5.50;1.30;;;;;;;20.52;30.51;101712.36;107375;1255;62015;-70
2023/06/04 08:55:09;;;;;;;3.20;1.20;;;;;;;20.22;30.61;101707.67;107372;1245;59781;-69
2023/06/04 08:57:40;;;;;;;3.30;1.10;;;;;;;20.08;30.83;101701.39;107206;1246;63243;-71
2023/06/04 09:00:10;;;;;;;2.60;1.10;;;;;;;20.47;30.94;101705.59;107297;1244;72691;-69
2023/06/04 09:02:39;;;;;;;4.30;1.20;;;;;;;20.21;30.78;101704.60;107169;1245;69816;-70
2023/06/04 09:05:10;;;;;;;6.00;1.50;;;;;;;20.15;31.20;101703.48;107163;1245;63782;-68
2023/06/04 09:07:41;;;;;;;2.90;1.40;;;;;;;20.53;30.71;101700.95;107310;1242;60444;-68
2023/06/04 09:10:15;;;;;;;3.30;1.30;;;;;;;20.63;30.60;101691.38;107284;1246;57576;-69
2023/06/04 09:12:49;;;;;;;3.30;1.10;;;;;;;20.85;30.47;101691.29;107060;1247;71742;-66
2023/06/04 09:15:18;;;;;;;3.00;1.00;;;;;;;21.03;30.48;101686.21;107092;1255;72679;-67
2023/06/04 09:17:47;;;;;;;1.80;1.20;;;;;;;20.87;30.04;101682.85;107118;1252;59673;-66
2023/06/04 09:20:22;;;;;;;3.70;1.20;;;;;;;21.13;30.91;101686.37;107049;1244;73048;-68
2023/06/04 09:22:51;;;;;;;4.10;1.30;;;;;;;21.45;30.42;101687.89;107022;1244;61282;-67
2023/06/04 09:25:25;;;;;;;4.30;1.30;;;;;;;21.63;29.74;101690.44;107139;1244;58305;-68
2023/06/04 09:27:56;;;;;;;4.50;1.20;;;;;;;21.60;29.53;101681.15;107078;1251;62062;-69
2023/06/04 09:30:25;;;;;;;3.70;1.20;;;;;;;21.52;29.28;101680.58;106982;1253;60928;-69
2023/06/04 09:32:54;;;;;;;2.10;1.00;;;;;;;21.39;29.33;101676.27;107105;1253;60843;-68
2023/06/04 09:35:23;;;;;;;3.00;1.20;;;;;;;21.58;29.99;101678.95;107121;1244;72201;-68
2023/06/04 09:37:57;;;;;;;5.80;1.40;;;;;;;21.88;29.80;101676.80;107060;1244;60728;-71
2023/06/04 09:40:38;;;;;;;2.80;1.30;;;;;;;22.19;29.63;101679.73;107239;1244;57797;-68
2023/06/04 09:43:07;;;;;;;2.40;1.10;;;;;;;22.00;28.75;101678.38;107078;1253;62506;-67
2023/06/04 09:45:37;;;;;;;2.90;1.30;;;;;;;22.18;28.99;101677.27;107326;1244;71459;-70
2023/06/04 09:48:06;;;;;;;2.90;1.00;;;;;;;21.97;28.64;101675.05;107154;1256;70699;-70
2023/06/04 09:50:39;;;;;;;5.70;2.10;;;;;;;22.15;29.33;101674.67;107213;1245;74523;-69
2023/06/04 09:53:22;;;;;;;2.40;1.10;;;;;;;21.89;28.06;101664.84;107276;1244;61963;-71
2023/06/04 09:56:04;;;;;;;6.10;1.70;;;;;;;21.68;28.91;101661.09;107349;1246;59119;-70
2023/06/04 09:58:34;;;;;;;2.90;1.20;;;;;;;21.86;29.18;101660.98;107295;1242;62099;-69
2023/06/04 10:01:06;;;;;;;3.10;1.10;;;;;;;21.96;29.33;101658.25;107380;1244;60995;-71
2023/06/04 10:03:37;;;;;;;4.80;1.50;;;;;;;22.10;29.21;101654.83;107366;1244;60219;-68
2023/06/04 10:06:09;;;;;;;2.90;1.20;;;;;;;22.25;29.00;101657.27;107380;1244;72369;-70
2023/06/04 10:08:41;;;;;;;2.00;1.10;;;;;;;22.38;28.17;101658.41;107273;1244;60996;-68
2023/06/04 10:11:12;;;;;;;2.30;1.10;;;;;;;22.39;28.02;101661.02;107281;1244;59057;-69
2023/06/04 10:13:56;;;;;;;2.50;1.10;;;;;;;22.50;28.12;101653.59;107242;1245;62123;-71
2023/06/04 10:16:27;;;;;;;5.10;1.00;;;;;;;22.44;27.79;101652.73;107164;1253;72200;-69
2023/06/04 10:19:06;;;;;;;3.40;1.90;;;;;;;22.06;28.56;101648.20;107098;1245;60724;-69
2023/06/04 10:21:37;;;;;;;6.80;1.50;;;;;;;22.25;27.95;101648.08;107284;1244;73431;-69
2023/06/04 10:24:07;;;;;;;3.50;1.20;;;;;;;22.63;28.07;101640.23;107301;1243;57967;-68
2023/06/04 14:18:09;;;;;;;3.40;1.50;;;;;;;26.85;21.81;101507.83;104911;1280;601222;-71
2023/06/04 14:20:38;;;;;;;3.60;1.50;;;;;;;27.84;21.04;101509.55;106125;1261;60019;-72
2023/06/04 14:23:07;;;;;;;4.60;1.40;;;;;;;27.49;20.74;101512.19;106090;1260;59089;-72
2023/06/04 14:25:37;;;;;;;6.60;1.50;;;;;;;27.57;20.86;101507.19;105921;1257;72118;-73
2023/06/04 14:28:06;;;;;;;5.90;1.40;;;;;;;27.06;21.67;101505.66;106817;1251;72056;-72
2023/06/04 14:30:35;;;;;;;4.80;1.60;;;;;;;26.12;22.58;101506.98;106739;1251;69977;-73
2023/06/04 14:33:04;;;;;;;2.80;1.40;;;;;;;25.64;23.09;101499.80;106742;1251;63306;-72
2023/06/04 14:35:33;;;;;;;2.40;1.20;;;;;;;25.57;23.38;101498.16;106808;1248;58986;-72
2023/06/04 14:38:02;;;;;;;3.90;1.40;;;;;;;25.22;23.95;101500.75;107069;1247;59109;-73
2023/06/04 14:40:31;;;;;;;5.00;1.60;;;;;;;25.14;24.08;101490.64;106766;1247;72969;-75
2023/06/04 14:43:00;;;;;;;2.10;1.20;;;;;;;24.83;24.27;101494.39;107182;1259;62836;-74
2023/06/04 14:45:29;;;;;;;3.20;1.40;;;;;;;24.75;24.21;101492.42;107151;1250;71513;-72
2023/06/04 14:47:57;;;;;;;4.60;1.30;;;;;;;24.73;24.85;101498.19;106804;1259;73532;-74
2023/06/04 14:50:43;;;;;;;6.20;1.40;;;;;;;24.81;24.77;101495.67;106884;1252;59020;-73
2023/06/04 14:53:12;;;;;;;4.10;1.50;;;;;;;25.25;24.34;101492.44;106976;1248;58543;-71
2023/06/04 14:55:41;;;;;;;2.80;1.30;;;;;;;26.29;23.37;101492.48;106728;1247;72442;-71
2023/06/04 14:58:11;;;;;;;3.90;1.40;;;;;;;26.54;22.75;101483.77;106653;1251;61659;-71
2023/06/04 15:00:40;;;;;;;4.60;1.80;;;;;;;27.12;22.23;101478.97;106869;1258;70908;-72
2023/06/04 15:03:09;;;;;;;6.70;1.80;;;;;;;26.58;22.58;101477.61;106740;1247;63349;-71
2023/06/04 15:05:38;;;;;;;5.70;1.60;;;;;;;25.89;23.46;101468.73;106660;1252;60495;-72
2023/06/04 15:08:08;;;;;;;3.10;1.50;;;;;;;25.63;24.12;101467.27;106667;1247;61351;-72
2023/06/04 15:10:37;;;;;;;5.40;1.50;;;;;;;25.55;24.47;101466.23;106795;1248;61787;-72
2023/06/04 15:13:06;;;;;;;4.30;1.60;;;;;;;25.26;24.58;101459.55;106880;1247;61549;-72
2023/06/04 15:15:35;;;;;;;7.00;1.60;;;;;;;24.92;25.23;101456.44;106633;1258;59813;-72
2023/06/04 15:18:06;;;;;;;3.20;1.60;;;;;;;24.73;25.22;101451.47;106540;1251;73468;-71
2023/06/04 15:20:35;;;;;;;6.90;1.50;;;;;;;24.66;25.38;101453.18;106631;1248;58960;-71
2023/06/04 15:23:04;;;;;;;4.20;1.60;;;;;;;24.60;25.76;101452.15;106660;1254;58942;-72
2023/06/04 15:25:33;;;;;;;6.00;1.80;;;;;;;24.38;26.08;101448.88;106924;1246;63118;-72
2023/06/04 15:28:02;;;;;;;4.40;1.80;;;;;;;24.58;25.93;101448.62;106820;1258;71858;-73
2023/06/04 15:30:31;;;;;;;3.70;1.40;;;;;;;24.80;25.53;101445.95;106957;1247;60032;-71
2023/06/04 15:33:01;;;;;;;3.00;1.60;;;;;;;25.40;24.95;101444.69;106913;1248;73785;-73
2023/06/04 15:35:30;;;;;;;2.60;1.40;;;;;;;25.36;24.72;101444.68;106960;1255;62802;-73
2023/06/04 15:37:59;;;;;;;3.20;1.50;;;;;;;25.27;24.67;101440.73;106976;1251;58910;-72
2023/06/04 15:40:29;;;;;;;3.10;1.30;;;;;;;24.87;25.37;101435.86;106934;1244;73509;-72
2023/06/04 15:42:58;;;;;;;3.20;1.60;;;;;;;24.93;25.40;101441.00;107145;1245;73651;-71
2023/06/04 15:45:27;;;;;;;4.20;1.80;;;;;;;26.09;24.26;101435.33;106891;1244;71698;-71
2023/06/04 15:47:56;;;;;;;5.40;1.50;;;;;;;27.27;23.44;101433.13;107057;1244;73574;-72
2023/06/04 15:50:25;;;;;;;3.80;1.80;;;;;;;28.02;22.36;101428.27;106979;1246;59003;-72
2023/06/04 15:52:53;;;;;;;3.20;1.30;;;;;;;28.26;22.06;101423.77;106952;1248;61836;-71
2023/06/04 15:55:23;;;;;;;4.30;1.60;;;;;;;28.57;21.62;101426.51;107106;1244;73660;-73
2023/06/04 15:57:51;;;;;;;3.50;1.30;;;;;;;28.19;21.57;101423.94;107300;1256;71807;-72
2023/06/04 16:00:20;;;;;;;4.00;1.40;;;;;;;28.15;21.74;101428.53;107340;1255;59623;-73
2023/06/04 16:02:49;;;;;;;9.80;1.60;;;;;;;28.26;21.41;101426.74;107039;1249;62467;-73
2023/06/04 16:05:18;;;;;;;2.20;1.30;;;;;;;28.28;21.37;101424.12;107420;1243;59015;-72
2023/06/04 16:07:47;;;;;;;3.40;1.20;;;;;;;28.58;20.71;101423.69;107507;1251;58971;-71
2023/06/04 16:10:16;;;;;;;3.00;1.50;;;;;;;28.36;20.99;101420.11;107284;1248;62155;-87
2023/06/04 16:12:45;;;;;;;3.80;1.40;;;;;;;28.67;20.85;101418.59;106878;1256;61661;-73
2023/06/04 16:15:14;;;;;;;2.40;1.60;;;;;;;29.04;20.54;101423.86;107093;1246;60885;-71
2023/06/04 16:17:46;;;;;;;5.20;1.80;;;;;;;28.62;20.83;101422.28;107088;1246;63470;-71
2023/06/04 16:20:16;;;;;;;3.10;1.20;;;;;;;28.40;21.04;101420.85;107109;1254;61216;-71
2023/06/04 16:22:45;;;;;;;6.10;2.00;;;;;;;28.62;20.81;101420.52;107425;1244;59054;-72
2023/06/04 16:25:17;;;;;;;4.60;1.80;;;;;;;28.32;21.32;101421.73;107283;1246;61965;-72
2023/06/04 16:27:46;;;;;;;7.00;2.10;;;;;;;28.21;21.34;101420.48;107303;1247;62618;-71
2023/06/04 16:30:16;;;;;;;3.80;1.30;;;;;;;27.86;21.79;101422.33;107156;1245;71792;-73
2023/06/04 16:32:45;;;;;;;2.70;1.30;;;;;;;28.05;21.52;101422.52;107459;1245;62829;-71
2023/06/04 16:35:14;;;;;;;6.40;1.30;;;;;;;28.29;21.27;101418.19;107100;1248;58899;-74
2023/06/04 16:37:43;;;;;;;2.20;1.20;;;;;;;28.22;21.37;101424.52;106966;1245;59101;-76
2023/06/04 16:40:12;;;;;;;4.00;1.30;;;;;;;28.31;21.48;101419.02;107304;1255;61620;-72
2023/06/04 16:42:41;;;;;;;4.20;1.60;;;;;;;28.12;21.72;101422.13;106893;1255;61648;-70
2023/06/04 16:45:11;;;;;;;5.10;3.20;;;;;;;27.76;22.15;101426.14;107252;1248;60013;-71
2023/06/04 16:47:42;;;;;;;7.40;1.80;;;;;;;27.61;22.50;101423.58;107036;1245;73904;-72
2023/06/04 16:50:12;;;;;;;7.70;3.70;;;;;;;27.47;22.26;101421.31;107136;1244;59548;-68
2023/06/04 16:52:41;;;;;;;3.60;2.00;;;;;;;27.42;22.73;101423.20;107008;1248;57377;-68
2023/06/04 16:55:10;;;;;;;6.10;2.10;;;;;;;26.98;23.29;101422.67;107040;1247;61966;-77
2023/06/04 16:57:39;;;;;;;6.60;3.10;;;;;;;26.72;23.75;101426.83;107191;1248;71714;-69
2023/06/04 17:00:09;;;;;;;6.40;2.80;;;;;;;26.25;24.32;101424.16;106834;1254;60410;-80
2023/06/04 17:02:58;;;;;;;6.60;2.10;;;;;;;26.23;24.68;101425.44;107165;1245;62472;-75
2023/06/04 17:05:27;;;;;;;4.60;1.90;;;;;;;25.72;25.21;101427.23;107445;1243;57971;-71
2023/06/04 17:07:56;;;;;;;4.10;2.20;;;;;;;25.17;26.25;101428.87;106978;1245;60437;-76
2023/06/04 17:10:31;;;;;;;6.30;1.70;;;;;;;24.77;26.81;101426.03;106911;1255;65006;-69
2023/06/04 17:13:01;;;;;;;6.70;1.90;;;;;;;23.99;27.44;101429.80;106922;1248;71958;-67
2023/06/04 17:15:30;;;;;;;4.80;1.80;;;;;;;23.59;28.47;101428.63;106994;1246;59587;-75
2023/06/04 17:18:00;;;;;;;5.00;1.50;;;;;;;23.65;28.62;101426.41;107241;1244;74004;-73
2023/06/04 17:20:30;;;;;;;6.20;1.70;;;;;;;23.28;29.20;101431.45;106766;1248;59100;-70
2023/06/04 17:23:00;;;;;;;7.00;1.90;;;;;;;23.09;29.38;101434.59;106847;1248;59112;-70
2023/06/04 17:25:30;;;;;;;5.30;1.60;;;;;;;22.92;29.96;101435.33;107299;1248;61405;-73
2023/06/04 17:28:01;;;;;;;7.70;1.90;;;;;;;22.80;30.30;101435.61;106891;1244;72121;-68
2023/06/04 17:30:30;;;;;;;4.20;1.90;;;;;;;22.55;31.15;101434.54;106935;1245;70078;-68
2023/06/04 17:32:59;;;;;;;4.80;2.20;;;;;;;22.47;31.19;101433.83;106797;1248;63873;-68
2023/06/04 17:35:28;;;;;;;5.30;2.10;;;;;;;22.37;31.12;101431.43;106942;1243;59080;-70
2023/06/04 17:37:58;;;;;;;6.60;2.20;;;;;;;22.17;32.01;101427.23;107154;1246;60355;-71
2023/06/04 17:40:27;;;;;;;4.80;2.40;;;;;;;22.08;32.01;101425.31;107035;1248;62234;-71
2023/06/04 17:42:57;;;;;;;7.00;2.20;;;;;;;21.99;32.31;101423.69;107014;1247;60992;-69
2023/06/04 17:45:26;;;;;;;7.70;2.60;;;;;;;21.84;32.94;101429.05;106975;1248;60196;-69
2023/06/04 17:47:56;;;;;;;6.70;2.30;;;;;;;21.68;33.26;101434.39;107057;1245;62829;-70
2023/06/04 17:50:25;;;;;;;4.10;1.90;;;;;;;21.54;33.56;101430.71;106971;1253;60591;-69